sensor_id;sensor_type;location;lat;lon;timestamp;temperature;humidity
55026;DHT22;40925;45.666;18.994;2024-01-25T00:00:18;153.70;2252.80
55026;DHT22;40925;45.666;18.994;2024-01-25T00:02:44;153.70;2252.80
55026;DHT22;40925;45.666;18.994;2024-01-25T00:05:09;153.60;2252.80
55026;DHT22;40925;45.666;18.994;2024-01-25T00:07:45;153.60;2252.80
55026;DHT22;40925;45.666;18.994;2024-01-25T00:10:11;153.60;2252.80
55026;DHT22;40925;45.666;18.994;2024-01-25T00:12:37;153.60;2252.80
55026;DHT22;40925;45.666;18.994;2024-01-25T00:15:03;153.60;2252.80
55026;DHT22;40925;45.666;18.994;2024-01-25T00:17:29;128.90;2252.80
55026;DHT22;40925;45.666;18.994;2024-01-25T00:19:54;153.60;2252.80
55026;DHT22;40925;45.666;18.994;2024-01-25T00:22:20;128.90;2252.80
55026;DHT22;40925;45.666;18.994;2024-01-25T00:24:46;128.90;2252.80
55026;DHT22;40925;45.666;18.994;2024-01-25T00:27:12;128.90;1894.40
55026;DHT22;40925;45.666;18.994;2024-01-25T00:29:37;128.90;2073.60
55026;DHT22;40925;45.666;18.994;2024-01-25T00:32:03;128.90;2252.80
55026;DHT22;40925;45.666;18.994;2024-01-25T00:34:29;128.80;2022.40
55026;DHT22;40925;45.666;18.994;2024-01-25T00:36:55;128.90;2252.80
55026;DHT22;40925;45.666;18.994;2024-01-25T00:39:21;128.90;2252.80
55026;DHT22;40925;45.666;18.994;2024-01-25T00:41:51;128.90;2252.80
55026;DHT22;40925;45.666;18.994;2024-01-25T00:44:17;128.90;2252.80
55026;DHT22;40925;45.666;18.994;2024-01-25T00:46:44;128.90;2252.80
55026;DHT22;40925;45.666;18.994;2024-01-25T00:49:13;128.90;2252.80
55026;DHT22;40925;45.666;18.994;2024-01-25T00:51:41;128.80;1920.00
55026;DHT22;40925;45.666;18.994;2024-01-25T00:54:09;128.80;2252.80
55026;DHT22;40925;45.666;18.994;2024-01-25T00:56:35;128.80;2252.80
55026;DHT22;40925;45.666;18.994;2024-01-25T00:59:01;128.80;2227.20
55026;DHT22;40925;45.666;18.994;2024-01-25T01:01:30;128.80;2252.80
55026;DHT22;40925;45.666;18.994;2024-01-25T01:03:58;128.80;2252.80
55026;DHT22;40925;45.666;18.994;2024-01-25T01:06:25;128.70;2252.80
55026;DHT22;40925;45.666;18.994;2024-01-25T01:08:51;128.80;2252.80
55026;DHT22;40925;45.666;18.994;2024-01-25T01:11:21;128.80;2150.40
55026;DHT22;40925;45.666;18.994;2024-01-25T01:13:47;128.80;1996.80
55026;DHT22;40925;45.666;18.994;2024-01-25T01:16:13;128.80;1971.20
55026;DHT22;40925;45.666;18.994;2024-01-25T01:18:38;128.80;1996.80
55026;DHT22;40925;45.666;18.994;2024-01-25T01:21:04;128.70;1996.80
55026;DHT22;40925;45.666;18.994;2024-01-25T01:23:30;128.70;2252.80
55026;DHT22;40925;45.666;18.994;2024-01-25T01:25:56;128.70;1868.80
55026;DHT22;40925;45.666;18.994;2024-01-25T01:28:22;128.70;2252.80
55026;DHT22;40925;45.666;18.994;2024-01-25T01:30:48;128.70;2252.80
55026;DHT22;40925;45.666;18.994;2024-01-25T01:33:16;128.70;2252.80
55026;DHT22;40925;45.666;18.994;2024-01-25T01:35:42;128.70;2252.80
55026;DHT22;40925;45.666;18.994;2024-01-25T01:38:09;128.80;2252.80
55026;DHT22;40925;45.666;18.994;2024-01-25T01:40:34;128.70;2252.80
55026;DHT22;40925;45.666;18.994;2024-01-25T01:43:04;128.70;2252.80
55026;DHT22;40925;45.666;18.994;2024-01-25T01:45:29;128.70;2252.80
55026;DHT22;40925;45.666;18.994;2024-01-25T01:47:56;128.80;2252.80
55026;DHT22;40925;45.666;18.994;2024-01-25T01:50:22;128.70;2252.80
55026;DHT22;40925;45.666;18.994;2024-01-25T01:52:49;128.70;2252.80
55026;DHT22;40925;45.666;18.994;2024-01-25T01:55:16;128.70;2252.80
55026;DHT22;40925;45.666;18.994;2024-01-25T01:57:43;128.70;2252.80
55026;DHT22;40925;45.666;18.994;2024-01-25T02:00:14;128.70;2252.80
55026;DHT22;40925;45.666;18.994;2024-01-25T02:02:42;128.70;2252.80
55026;DHT22;40925;45.666;18.994;2024-01-25T02:05:08;128.70;1920.00
55026;DHT22;40925;45.666;18.994;2024-01-25T02:07:35;128.70;2252.80
55026;DHT22;40925;45.666;18.994;2024-01-25T02:10:04;128.70;1920.00
55026;DHT22;40925;45.666;18.994;2024-01-25T02:12:30;128.70;1945.60
55026;DHT22;40925;45.666;18.994;2024-01-25T02:14:56;128.70;2252.80
55026;DHT22;40925;45.666;18.994;2024-01-25T02:17:22;128.70;2252.80
55026;DHT22;40925;45.666;18.994;2024-01-25T02:19:51;128.70;2252.80
55026;DHT22;40925;45.666;18.994;2024-01-25T02:22:19;128.80;2252.80
55026;DHT22;40925;45.666;18.994;2024-01-25T02:24:44;128.70;2252.80
55026;DHT22;40925;45.666;18.994;2024-01-25T02:27:10;128.80;2252.80
55026;DHT22;40925;45.666;18.994;2024-01-25T02:29:36;128.80;2252.80
55026;DHT22;40925;45.666;18.994;2024-01-25T02:32:02;128.70;2252.80
55026;DHT22;40925;45.666;18.994;2024-01-25T02:34:28;128.70;2252.80
55026;DHT22;40925;45.666;18.994;2024-01-25T02:36:54;128.60;2252.80
55026;DHT22;40925;45.666;18.994;2024-01-25T02:39:20;128.60;2252.80
55026;DHT22;40925;45.666;18.994;2024-01-25T02:41:45;128.60;2252.80
55026;DHT22;40925;45.666;18.994;2024-01-25T02:44:11;128.60;1920.00
55026;DHT22;40925;45.666;18.994;2024-01-25T02:46:37;128.60;1996.80
55026;DHT22;40925;45.666;18.994;2024-01-25T02:49:04;128.60;2252.80
55026;DHT22;40925;45.666;18.994;2024-01-25T02:51:29;128.60;2252.80
55026;DHT22;40925;45.666;18.994;2024-01-25T02:53:55;128.60;2252.80
55026;DHT22;40925;45.666;18.994;2024-01-25T02:56:21;128.60;2252.80
55026;DHT22;40925;45.666;18.994;2024-01-25T02:58:47;128.50;2252.80
55026;DHT22;40925;45.666;18.994;2024-01-25T03:01:13;128.50;2252.80
55026;DHT22;40925;45.666;18.994;2024-01-25T03:03:38;128.50;2252.80
55026;DHT22;40925;45.666;18.994;2024-01-25T03:06:06;128.50;2252.80
55026;DHT22;40925;45.666;18.994;2024-01-25T03:08:32;128.60;2252.80
55026;DHT22;40925;45.666;18.994;2024-01-25T03:10:57;128.60;2252.80
55026;DHT22;40925;45.666;18.994;2024-01-25T03:13:23;128.70;2252.80
55026;DHT22;40925;45.666;18.994;2024-01-25T03:15:49;128.70;2252.80
55026;DHT22;40925;45.666;18.994;2024-01-25T03:18:15;128.70;2252.80
55026;DHT22;40925;45.666;18.994;2024-01-25T03:20:41;128.80;2252.80
55026;DHT22;40925;45.666;18.994;2024-01-25T03:23:06;128.80;2252.80
55026;DHT22;40925;45.666;18.994;2024-01-25T03:25:32;128.80;2252.80
55026;DHT22;40925;45.666;18.994;2024-01-25T03:27:58;128.90;2252.80
55026;DHT22;40925;45.666;18.994;2024-01-25T03:30:24;128.90;2252.80
55026;DHT22;40925;45.666;18.994;2024-01-25T03:32:49;128.90;2252.80
55026;DHT22;40925;45.666;18.994;2024-01-25T03:35:15;153.60;2252.80
55026;DHT22;40925;45.666;18.994;2024-01-25T03:37:41;128.90;2252.80
55026;DHT22;40925;45.666;18.994;2024-01-25T03:40:07;128.70;2252.80
55026;DHT22;40925;45.666;18.994;2024-01-25T03:42:32;128.50;2252.80
55026;DHT22;40925;45.666;18.994;2024-01-25T03:45:00;128.20;2252.80
55026;DHT22;40925;45.666;18.994;2024-01-25T03:47:28;128.20;2252.80
55026;DHT22;40925;45.666;18.994;2024-01-25T03:49:54;128.20;1945.60
55026;DHT22;40925;45.666;18.994;2024-01-25T03:52:19;128.20;1971.20
55026;DHT22;40925;45.666;18.994;2024-01-25T03:54:45;128.30;2252.80
55026;DHT22;40925;45.666;18.994;2024-01-25T03:57:11;128.30;2252.80
55026;DHT22;40925;45.666;18.994;2024-01-25T03:59:39;128.40;2252.80
55026;DHT22;40925;45.666;18.994;2024-01-25T04:02:05;128.40;2252.80
55026;DHT22;40925;45.666;18.994;2024-01-25T04:04:31;128.30;1920.00
55026;DHT22;40925;45.666;18.994;2024-01-25T04:06:57;128.30;2252.80
55026;DHT22;40925;45.666;18.994;2024-01-25T04:09:23;128.30;2252.80
55026;DHT22;40925;45.666;18.994;2024-01-25T04:11:48;128.30;2252.80
55026;DHT22;40925;45.666;18.994;2024-01-25T04:14:14;128.20;2099.20
55026;DHT22;40925;45.666;18.994;2024-01-25T04:16:41;128.20;2252.80
55026;DHT22;40925;45.666;18.994;2024-01-25T04:19:08;128.20;2252.80
55026;DHT22;40925;45.666;18.994;2024-01-25T04:21:37;128.20;2252.80
55026;DHT22;40925;45.666;18.994;2024-01-25T04:24:04;128.20;2252.80
55026;DHT22;40925;45.666;18.994;2024-01-25T04:26:30;128.20;2252.80
55026;DHT22;40925;45.666;18.994;2024-01-25T04:28:55;128.10;2252.80
55026;DHT22;40925;45.666;18.994;2024-01-25T04:31:21;128.10;2252.80
55026;DHT22;40925;45.666;18.994;2024-01-25T04:33:47;128.20;2252.80
55026;DHT22;40925;45.666;18.994;2024-01-25T04:36:13;128.20;2073.60
55026;DHT22;40925;45.666;18.994;2024-01-25T04:38:38;128.20;2073.60
55026;DHT22;40925;45.666;18.994;2024-01-25T04:41:04;128.20;2252.80
55026;DHT22;40925;45.666;18.994;2024-01-25T04:43:36;128.20;2252.80
55026;DHT22;40925;45.666;18.994;2024-01-25T04:46:03;128.20;2252.80
55026;DHT22;40925;45.666;18.994;2024-01-25T04:48:29;128.10;2252.80
55026;DHT22;40925;45.666;18.994;2024-01-25T04:51:01;128.10;2252.80
55026;DHT22;40925;45.666;18.994;2024-01-25T04:53:27;128.10;2252.80
55026;DHT22;40925;45.666;18.994;2024-01-25T04:55:54;128.10;2252.80
55026;DHT22;40925;45.666;18.994;2024-01-25T04:58:20;128.10;2252.80
55026;DHT22;40925;45.666;18.994;2024-01-25T05:00:48;128.10;2252.80
55026;DHT22;40925;45.666;18.994;2024-01-25T05:03:15;128.10;2252.80
55026;DHT22;40925;45.666;18.994;2024-01-25T05:05:41;128.10;2252.80
55026;DHT22;40925;45.666;18.994;2024-01-25T05:08:11;128.10;2252.80
55026;DHT22;40925;45.666;18.994;2024-01-25T05:10:37;128.10;2252.80
55026;DHT22;40925;45.666;18.994;2024-01-25T05:13:03;128.10;2252.80
55026;DHT22;40925;45.666;18.994;2024-01-25T05:15:29;128.20;1894.40
55026;DHT22;40925;45.666;18.994;2024-01-25T05:17:57;128.30;2252.80
55026;DHT22;40925;45.666;18.994;2024-01-25T05:20:23;128.30;2252.80
55026;DHT22;40925;45.666;18.994;2024-01-25T05:22:49;128.30;2252.80
55026;DHT22;40925;45.666;18.994;2024-01-25T05:25:14;128.40;2252.80
55026;DHT22;40925;45.666;18.994;2024-01-25T05:27:43;128.40;2252.80
55026;DHT22;40925;45.666;18.994;2024-01-25T05:30:09;128.40;2252.80
55026;DHT22;40925;45.666;18.994;2024-01-25T05:32:35;128.50;2252.80
55026;DHT22;40925;45.666;18.994;2024-01-25T05:35:01;128.50;2252.80
55026;DHT22;40925;45.666;18.994;2024-01-25T05:37:27;128.60;2252.80
55026;DHT22;40925;45.666;18.994;2024-01-25T05:39:55;128.60;2252.80
55026;DHT22;40925;45.666;18.994;2024-01-25T05:42:21;128.60;2252.80
55026;DHT22;40925;45.666;18.994;2024-01-25T05:44:47;128.60;2252.80
55026;DHT22;40925;45.666;18.994;2024-01-25T05:47:16;128.60;2252.80
55026;DHT22;40925;45.666;18.994;2024-01-25T05:49:41;128.60;2252.80
55026;DHT22;40925;45.666;18.994;2024-01-25T05:52:07;128.70;2252.80
55026;DHT22;40925;45.666;18.994;2024-01-25T05:54:33;128.70;2252.80
55026;DHT22;40925;45.666;18.994;2024-01-25T05:56:58;128.70;2252.80
55026;DHT22;40925;45.666;18.994;2024-01-25T05:59:24;128.80;2252.80
55026;DHT22;40925;45.666;18.994;2024-01-25T06:01:50;128.80;2252.80
55026;DHT22;40925;45.666;18.994;2024-01-25T06:04:16;128.80;2252.80
55026;DHT22;40925;45.666;18.994;2024-01-25T06:06:41;128.80;2252.80
55026;DHT22;40925;45.666;18.994;2024-01-25T06:09:07;128.80;2252.80
55026;DHT22;40925;45.666;18.994;2024-01-25T06:11:34;128.80;2252.80
55026;DHT22;40925;45.666;18.994;2024-01-25T06:14:01;128.80;2252.80
55026;DHT22;40925;45.666;18.994;2024-01-25T06:16:27;128.80;2252.80
55026;DHT22;40925;45.666;18.994;2024-01-25T06:18:52;128.80;2252.80
55026;DHT22;40925;45.666;18.994;2024-01-25T06:21:18;128.80;2252.80
55026;DHT22;40925;45.666;18.994;2024-01-25T06:23:44;128.80;2252.80
55026;DHT22;40925;45.666;18.994;2024-01-25T06:26:10;128.80;2252.80
55026;DHT22;40925;45.666;18.994;2024-01-25T06:28:35;128.80;2252.80
55026;DHT22;40925;45.666;18.994;2024-01-25T06:31:01;128.80;2252.80
55026;DHT22;40925;45.666;18.994;2024-01-25T06:33:27;128.80;2252.80
55026;DHT22;40925;45.666;18.994;2024-01-25T06:35:54;128.60;2252.80
55026;DHT22;40925;45.666;18.994;2024-01-25T06:38:20;128.40;2252.80
55026;DHT22;40925;45.666;18.994;2024-01-25T06:40:49;128.30;2252.80
55026;DHT22;40925;45.666;18.994;2024-01-25T06:43:14;128.10;2252.80
55026;DHT22;40925;45.666;18.994;2024-01-25T06:45:40;128.10;2252.80
55026;DHT22;40925;45.666;18.994;2024-01-25T06:48:07;128.20;2252.80
55026;DHT22;40925;45.666;18.994;2024-01-25T06:50:34;128.20;2252.80
55026;DHT22;40925;45.666;18.994;2024-01-25T06:53:00;128.20;2252.80
55026;DHT22;40925;45.666;18.994;2024-01-25T06:55:26;128.30;2252.80
55026;DHT22;40925;45.666;18.994;2024-01-25T06:57:51;128.30;2099.20
55026;DHT22;40925;45.666;18.994;2024-01-25T07:00:17;128.40;2252.80
55026;DHT22;40925;45.666;18.994;2024-01-25T07:02:44;128.40;1894.40
55026;DHT22;40925;45.666;18.994;2024-01-25T07:05:10;128.60;2252.80
55026;DHT22;40925;45.666;18.994;2024-01-25T07:07:36;128.60;2252.80
55026;DHT22;40925;45.666;18.994;2024-01-25T07:10:04;128.70;2252.80
55026;DHT22;40925;45.666;18.994;2024-01-25T07:12:31;128.80;2252.80
55026;DHT22;40925;45.666;18.994;2024-01-25T07:14:57;128.90;2252.80
55026;DHT22;40925;45.666;18.994;2024-01-25T07:17:23;128.90;2252.80
55026;DHT22;40925;45.666;18.994;2024-01-25T07:19:49;153.60;2252.80
55026;DHT22;40925;45.666;18.994;2024-01-25T07:22:15;153.70;2252.80
55026;DHT22;40925;45.666;18.994;2024-01-25T07:24:43;153.80;2252.80
55026;DHT22;40925;45.666;18.994;2024-01-25T07:27:08;154.00;2252.80
55026;DHT22;40925;45.666;18.994;2024-01-25T07:29:36;154.00;2252.80
55026;DHT22;40925;45.666;18.994;2024-01-25T07:32:02;154.10;2252.80
55026;DHT22;40925;45.666;18.994;2024-01-25T07:34:28;154.10;2252.80
55026;DHT22;40925;45.666;18.994;2024-01-25T07:36:54;154.20;2252.80
55026;DHT22;40925;45.666;18.994;2024-01-25T07:39:20;154.20;2252.80
55026;DHT22;40925;45.666;18.994;2024-01-25T07:41:46;154.30;2252.80
55026;DHT22;40925;45.666;18.994;2024-01-25T07:44:12;154.40;2252.80
55026;DHT22;40925;45.666;18.994;2024-01-25T07:46:45;179.20;2252.80
55026;DHT22;40925;45.666;18.994;2024-01-25T07:49:11;154.40;2252.80
55026;DHT22;40925;45.666;18.994;2024-01-25T07:51:36;154.50;2252.80
55026;DHT22;40925;45.666;18.994;2024-01-25T07:54:02;154.50;2252.80
55026;DHT22;40925;45.666;18.994;2024-01-25T07:56:31;154.40;2252.80
55026;DHT22;40925;45.666;18.994;2024-01-25T07:58:56;154.40;2252.80
55026;DHT22;40925;45.666;18.994;2024-01-25T08:01:25;154.40;2252.80
55026;DHT22;40925;45.666;18.994;2024-01-25T08:03:51;154.40;2252.80
55026;DHT22;40925;45.666;18.994;2024-01-25T08:06:17;154.40;2252.80
55026;DHT22;40925;45.666;18.994;2024-01-25T08:08:43;154.40;2252.80
55026;DHT22;40925;45.666;18.994;2024-01-25T08:11:09;154.50;2252.80
55026;DHT22;40925;45.666;18.994;2024-01-25T08:13:34;154.50;2252.80
55026;DHT22;40925;45.666;18.994;2024-01-25T08:16:00;154.50;2252.80
55026;DHT22;40925;45.666;18.994;2024-01-25T08:18:26;179.20;2252.80
55026;DHT22;40925;45.666;18.994;2024-01-25T08:20:54;179.30;2252.80
55026;DHT22;40925;45.666;18.994;2024-01-25T08:23:21;179.40;2252.80
55026;DHT22;40925;45.666;18.994;2024-01-25T08:25:47;179.50;2252.80
55026;DHT22;40925;45.666;18.994;2024-01-25T08:28:12;179.60;2252.80
55026;DHT22;40925;45.666;18.994;2024-01-25T08:30:38;179.70;2252.80
55026;DHT22;40925;45.666;18.994;2024-01-25T08:33:04;179.90;2252.80
55026;DHT22;40925;45.666;18.994;2024-01-25T08:35:30;180.00;2252.80
55026;DHT22;40925;45.666;18.994;2024-01-25T08:37:58;180.10;2252.80
55026;DHT22;40925;45.666;18.994;2024-01-25T08:40:24;204.80;2252.80
55026;DHT22;40925;45.666;18.994;2024-01-25T08:42:50;204.90;2252.80
55026;DHT22;40925;45.666;18.994;2024-01-25T08:45:16;204.90;2252.80
55026;DHT22;40925;45.666;18.994;2024-01-25T08:47:41;205.00;2252.80
55026;DHT22;40925;45.666;18.994;2024-01-25T08:50:07;205.10;2252.80
55026;DHT22;40925;45.666;18.994;2024-01-25T08:52:36;205.20;2252.80
55026;DHT22;40925;45.666;18.994;2024-01-25T08:55:04;205.30;2252.80
55026;DHT22;40925;45.666;18.994;2024-01-25T08:57:33;205.40;2252.80
55026;DHT22;40925;45.666;18.994;2024-01-25T08:59:59;205.30;2252.80
55026;DHT22;40925;45.666;18.994;2024-01-25T09:02:26;205.30;2252.80
55026;DHT22;40925;45.666;18.994;2024-01-25T09:04:55;205.20;2252.80
55026;DHT22;40925;45.666;18.994;2024-01-25T09:07:21;205.30;2252.80
55026;DHT22;40925;45.666;18.994;2024-01-25T09:26:56;231.00;2252.80
55026;DHT22;40925;45.666;18.994;2024-01-25T09:29:24;230.90;2252.80
55026;DHT22;40925;45.666;18.994;2024-01-25T09:31:50;231.30;2252.80
55026;DHT22;40925;45.666;18.994;2024-01-25T09:34:16;282.00;2278.40
55026;DHT22;40925;45.666;18.994;2024-01-25T09:36:41;307.60;2304.00
55026;DHT22;40925;45.666;18.994;2024-01-25T09:39:08;307.80;2304.00
55026;DHT22;40925;45.666;18.994;2024-01-25T09:41:36;308.00;2304.00
55026;DHT22;40925;45.666;18.994;2024-01-25T09:44:01;308.00;2304.00
55026;DHT22;40925;45.666;18.994;2024-01-25T09:46:27;333.20;2329.60
55026;DHT22;40925;45.666;18.994;2024-01-25T09:48:53;358.40;2329.60
55026;DHT22;40925;45.666;18.994;2024-01-25T09:51:19;358.90;2329.60
55026;DHT22;40925;45.666;18.994;2024-01-25T09:53:45;359.20;2252.80
55026;DHT22;40925;45.666;18.994;2024-01-25T09:56:14;384.30;2176.00
55026;DHT22;40925;45.666;18.994;2024-01-25T09:58:44;384.00;2176.00
55026;DHT22;40925;45.666;18.994;2024-01-25T10:01:15;384.70;2099.20
55026;DHT22;40925;45.666;18.994;2024-01-25T10:03:47;410.00;2073.60
55026;DHT22;40925;45.666;18.994;2024-01-25T10:06:14;409.90;1996.80
55026;DHT22;40925;45.666;18.994;2024-01-25T10:08:40;410.10;2073.60
55026;DHT22;40925;45.666;18.994;2024-01-25T10:11:06;435.20;1996.80
55026;DHT22;40925;45.666;18.994;2024-01-25T10:13:46;435.70;1945.60
55026;DHT22;40925;45.666;18.994;2024-01-25T10:16:16;436.00;1894.40
55026;DHT22;40925;45.666;18.994;2024-01-25T10:18:43;435.80;1920.00
55026;DHT22;40925;45.666;18.994;2024-01-25T10:21:10;435.90;1894.40
55026;DHT22;40925;45.666;18.994;2024-01-25T10:23:37;435.50;1920.00
55026;DHT22;40925;45.666;18.994;2024-01-25T10:26:03;435.60;1945.60
55026;DHT22;40925;45.666;18.994;2024-01-25T10:28:29;410.50;1945.60
55026;DHT22;40925;45.666;18.994;2024-01-25T10:31:05;410.50;1945.60
55026;DHT22;40925;45.666;18.994;2024-01-25T10:33:33;435.80;1945.60
55026;DHT22;40925;45.666;18.994;2024-01-25T10:36:03;436.00;1945.60
55026;DHT22;40925;45.666;18.994;2024-01-25T10:38:32;435.90;1843.20
55026;DHT22;40925;45.666;18.994;2024-01-25T10:45:53;436.10;1945.60
55026;DHT22;40925;45.666;18.994;2024-01-25T10:48:23;460.80;1868.80
55026;DHT22;40925;45.666;18.994;2024-01-25T10:50:49;435.70;1843.20
55026;DHT22;40925;45.666;18.994;2024-01-25T10:53:16;435.30;1868.80
55026;DHT22;40925;45.666;18.994;2024-01-25T10:55:42;435.40;1868.80
55026;DHT22;40925;45.666;18.994;2024-01-25T11:03:02;461.00;1817.60
55026;DHT22;40925;45.666;18.994;2024-01-25T11:07:55;461.40;1766.40
55026;DHT22;40925;45.666;18.994;2024-01-25T11:10:24;461.20;1766.40
55026;DHT22;40925;45.666;18.994;2024-01-25T11:13:01;460.80;1766.40
55026;DHT22;40925;45.666;18.994;2024-01-25T11:15:34;461.00;1715.20
55026;DHT22;40925;45.666;18.994;2024-01-25T11:18:01;461.00;1740.80
55026;DHT22;40925;45.666;18.994;2024-01-25T11:20:28;461.40;1689.60
55026;DHT22;40925;45.666;18.994;2024-01-25T11:23:02;461.40;1664.00
55026;DHT22;40925;45.666;18.994;2024-01-25T11:25:34;461.50;1689.60
55026;DHT22;40925;45.666;18.994;2024-01-25T11:30:33;460.80;1664.00
55026;DHT22;40925;45.666;18.994;2024-01-25T11:33:04;460.80;1689.60
55026;DHT22;40925;45.666;18.994;2024-01-25T11:35:34;436.10;1664.00
55026;DHT22;40925;45.666;18.994;2024-01-25T11:37:59;461.30;1689.60
55026;DHT22;40925;45.666;18.994;2024-01-25T11:40:26;461.30;1664.00
55026;DHT22;40925;45.666;18.994;2024-01-25T11:42:54;461.30;1689.60
55026;DHT22;40925;45.666;18.994;2024-01-25T11:45:20;461.40;1664.00
55026;DHT22;40925;45.666;18.994;2024-01-25T11:47:46;461.10;1689.60
55026;DHT22;40925;45.666;18.994;2024-01-25T11:50:12;461.20;1664.00
55026;DHT22;40925;45.666;18.994;2024-01-25T11:52:42;461.40;1664.00
55026;DHT22;40925;45.666;18.994;2024-01-25T11:55:09;461.20;1638.40
55026;DHT22;40925;45.666;18.994;2024-01-25T11:57:37;461.00;1638.40
55026;DHT22;40925;45.666;18.994;2024-01-25T12:02:36;461.10;1664.00
55026;DHT22;40925;45.666;18.994;2024-01-25T12:05:02;461.10;1664.00
55026;DHT22;40925;45.666;18.994;2024-01-25T12:07:30;461.40;1638.40
55026;DHT22;40925;45.666;18.994;2024-01-25T12:10:04;461.10;1638.40
55026;DHT22;40925;45.666;18.994;2024-01-25T12:12:31;461.30;1664.00
55026;DHT22;40925;45.666;18.994;2024-01-25T12:15:02;461.40;1664.00
55026;DHT22;40925;45.666;18.994;2024-01-25T12:17:33;461.50;1664.00
55026;DHT22;40925;45.666;18.994;2024-01-25T12:20:02;486.40;1638.40
55026;DHT22;40925;45.666;18.994;2024-01-25T12:22:29;486.60;1638.40
55026;DHT22;40925;45.666;18.994;2024-01-25T12:24:57;486.40;1612.80
55026;DHT22;40925;45.666;18.994;2024-01-25T12:27:23;461.60;1638.40
55026;DHT22;40925;45.666;18.994;2024-01-25T12:29:51;461.60;1612.80
55026;DHT22;40925;45.666;18.994;2024-01-25T12:32:20;461.50;1638.40
55026;DHT22;40925;45.666;18.994;2024-01-25T12:34:56;461.10;1638.40
55026;DHT22;40925;45.666;18.994;2024-01-25T12:37:22;461.30;1612.80
55026;DHT22;40925;45.666;18.994;2024-01-25T12:39:49;461.10;1612.80
55026;DHT22;40925;45.666;18.994;2024-01-25T12:42:15;436.10;1561.60
55026;DHT22;40925;45.666;18.994;2024-01-25T12:44:41;460.80;1612.80
55026;DHT22;40925;45.666;18.994;2024-01-25T12:47:07;436.10;1587.20
55026;DHT22;40925;45.666;18.994;2024-01-25T12:49:33;435.70;1587.20
55026;DHT22;40925;45.666;18.994;2024-01-25T12:51:59;435.80;1612.80
55026;DHT22;40925;45.666;18.994;2024-01-25T12:54:26;436.00;1587.20
55026;DHT22;40925;45.666;18.994;2024-01-25T12:56:57;461.20;1587.20
55026;DHT22;40925;45.666;18.994;2024-01-25T12:59:36;460.80;1587.20
55026;DHT22;40925;45.666;18.994;2024-01-25T13:02:05;436.10;1536.00
55026;DHT22;40925;45.666;18.994;2024-01-25T13:04:35;435.70;1561.60
55026;DHT22;40925;45.666;18.994;2024-01-25T13:07:00;435.30;1612.80
55026;DHT22;40925;45.666;18.994;2024-01-25T13:09:27;410.00;1664.00
55026;DHT22;40925;45.666;18.994;2024-01-25T13:11:54;409.80;1689.60
55026;DHT22;40925;45.666;18.994;2024-01-25T13:14:20;410.00;1689.60
55026;DHT22;40925;45.666;18.994;2024-01-25T13:16:46;410.20;1689.60
55026;DHT22;40925;45.666;18.994;2024-01-25T13:19:11;435.40;1689.60
55026;DHT22;40925;45.666;18.994;2024-01-25T13:21:37;410.30;1715.20
55026;DHT22;40925;45.666;18.994;2024-01-25T13:24:03;410.00;1638.40
55026;DHT22;40925;45.666;18.994;2024-01-25T13:26:29;384.50;1612.80
55026;DHT22;40925;45.666;18.994;2024-01-25T13:28:55;384.00;1638.40
55026;DHT22;40925;45.666;18.994;2024-01-25T13:31:21;359.10;1664.00
55026;DHT22;40925;45.666;18.994;2024-01-25T13:33:46;358.90;1638.40
55026;DHT22;40925;45.666;18.994;2024-01-25T13:36:12;358.70;1689.60
55026;DHT22;40925;45.666;18.994;2024-01-25T13:38:40;358.50;1689.60
55026;DHT22;40925;45.666;18.994;2024-01-25T13:41:06;358.40;1715.20
55026;DHT22;40925;45.666;18.994;2024-01-25T13:43:33;358.40;1740.80
55026;DHT22;40925;45.666;18.994;2024-01-25T13:45:58;358.40;1715.20
55026;DHT22;40925;45.666;18.994;2024-01-25T13:48:24;358.40;1715.20
55026;DHT22;40925;45.666;18.994;2024-01-25T13:50:50;333.70;1740.80
55026;DHT22;40925;45.666;18.994;2024-01-25T13:53:18;333.60;1740.80
55026;DHT22;40925;45.666;18.994;2024-01-25T13:55:44;333.40;1766.40
55026;DHT22;40925;45.666;18.994;2024-01-25T13:58:10;332.90;1792.00
55026;DHT22;40925;45.666;18.994;2024-01-25T14:00:36;333.40;1792.00
55026;DHT22;40925;45.666;18.994;2024-01-25T14:03:02;358.60;1740.80
55026;DHT22;40925;45.666;18.994;2024-01-25T14:05:29;358.80;1715.20
55026;DHT22;40925;45.666;18.994;2024-01-25T14:07:54;359.00;1715.20
55026;DHT22;40925;45.666;18.994;2024-01-25T14:10:20;359.30;1715.20
55026;DHT22;40925;45.666;18.994;2024-01-25T14:12:49;359.20;1715.20
55026;DHT22;40925;45.666;18.994;2024-01-25T14:15:15;358.90;1740.80
55026;DHT22;40925;45.666;18.994;2024-01-25T14:17:41;358.70;1740.80
55026;DHT22;40925;45.666;18.994;2024-01-25T14:20:07;358.40;1766.40
55026;DHT22;40925;45.666;18.994;2024-01-25T14:22:34;333.60;1817.60
55026;DHT22;40925;45.666;18.994;2024-01-25T14:25:00;333.30;1817.60
55026;DHT22;40925;45.666;18.994;2024-01-25T14:27:25;333.20;1843.20
55026;DHT22;40925;45.666;18.994;2024-01-25T14:29:52;333.20;1843.20
55026;DHT22;40925;45.666;18.994;2024-01-25T14:32:17;333.10;1843.20
55026;DHT22;40925;45.666;18.994;2024-01-25T14:34:47;333.30;1868.80
55026;DHT22;40925;45.666;18.994;2024-01-25T14:37:14;333.50;1843.20
55026;DHT22;40925;45.666;18.994;2024-01-25T14:39:39;333.70;1843.20
55026;DHT22;40925;45.666;18.994;2024-01-25T14:42:14;358.40;1843.20
55026;DHT22;40925;45.666;18.994;2024-01-25T14:44:43;358.40;1843.20
55026;DHT22;40925;45.666;18.994;2024-01-25T14:47:09;358.40;1843.20
55026;DHT22;40925;45.666;18.994;2024-01-25T14:49:35;333.70;1843.20
55026;DHT22;40925;45.666;18.994;2024-01-25T14:52:01;333.60;1843.20
55026;DHT22;40925;45.666;18.994;2024-01-25T14:54:27;333.50;1868.80
55026;DHT22;40925;45.666;18.994;2024-01-25T14:56:53;333.20;1894.40
55026;DHT22;40925;45.666;18.994;2024-01-25T14:59:18;333.00;1945.60
55026;DHT22;40925;45.666;18.994;2024-01-25T15:01:47;332.90;1945.60
55026;DHT22;40925;45.666;18.994;2024-01-25T15:04:13;308.00;1945.60
55026;DHT22;40925;45.666;18.994;2024-01-25T15:06:42;307.80;1971.20